Time;durP1;ratioP1;P1;durP2;ratioP2;P2;SDS_P1;SDS_P2;PMS_P1;PMS_P2;Temp;Humidity;BMP_temperature;BMP_pressure;BME280_temperature;BME280_humidity;BME280_pressure;Samples;Min_cycle;Max_cycle;Signal;HPM_P1;HPM_P2
2023/03/12 00:04:12;;;;;;;44.5;24.2;;;;;;;-0.5;87.5;98070;;;;
2023/03/12 00:14:12;;;;;;;44.5;24.2;;;;;;;-0.6;87.4;98080;;;;
2023/03/12 00:24:12;;;;;;;52.6;26.4;;;;;;;-0.9;87.7;98090;;;;
2023/03/12 00:35:12;;;;;;;52.6;26.4;;;;;;;-1.1;87.8;98090;;;;
2023/03/12 00:45:12;;;;;;;52.6;26.4;;;;;;;-1.1;88.2;98100;;;;
2023/03/12 00:56:12;;;;;;;57.4;28.3;;;;;;;-1.3;88.4;98100;;;;
2023/03/12 01:06:12;;;;;;;57.4;28.3;;;;;;;-1.4;88.4;98110;;;;
2023/03/12 01:16:12;;;;;;;40.7;22.2;;;;;;;-1.6;88.5;98120;;;;
2023/03/12 01:27:12;;;;;;;40.7;22.2;;;;;;;-1.7;88.8;98130;;;;
2023/03/12 01:37:12;;;;;;;40.7;22.2;;;;;;;-1.5;89.1;98120;;;;
2023/03/12 01:48:12;;;;;;;43.9;22.1;;;;;;;-1.4;88.9;98130;;;;
2023/03/12 01:59:12;;;;;;;43.9;22.1;;;;;;;-1.6;88.5;98130;;;;
2023/03/12 02:10:12;;;;;;;43.9;22.1;;;;;;;-1.8;88.6;98150;;;;
2023/03/12 02:20:12;;;;;;;46;23.7;;;;;;;-1.9;88.9;98170;;;;
2023/03/12 02:30:14;;;;;;;46;23.7;;;;;;;-1.9;89.3;98170;;;;
2023/03/12 02:41:12;;;;;;;46;23.7;;;;;;;-1.8;89.7;98180;;;;
2023/03/12 02:52:12;;;;;;;44.5;20.9;;;;;;;-1.8;89.5;98190;;;;
2023/03/12 03:02:12;;;;;;;44.5;20.9;;;;;;;-1.6;88.4;98200;;;;
2023/03/12 03:13:12;;;;;;;44.5;20.9;;;;;;;-1.4;88.4;98210;;;;
2023/03/12 03:23:12;;;;;;;45.4;23.1;;;;;;;-1.2;87.4;98230;;;;
2023/03/12 03:33:12;;;;;;;45.4;23.1;;;;;;;-1.1;87.3;98230;;;;
2023/03/12 03:43:12;;;;;;;45.4;23.1;;;;;;;-1;86.8;98250;;;;
2023/03/12 03:54:12;;;;;;;50;22.8;;;;;;;-0.9;85.7;98250;;;;
2023/03/12 04:04:12;;;;;;;50;22.8;;;;;;;-0.8;85.2;98270;;;;
2023/03/12 04:15:12;;;;;;;45;20.5;;;;;;;-0.8;84.9;98270;;;;
2023/03/12 04:26:12;;;;;;;45;20.5;;;;;;;-1;84.1;98270;;;;
2023/03/12 04:37:12;;;;;;;45;20.5;;;;;;;-1.3;84.3;98280;;;;
2023/03/12 04:47:12;;;;;;;28.7;16;;;;;;;-1.5;84.5;98280;;;;
2023/03/12 04:58:12;;;;;;;28.7;16;;;;;;;-1.7;84.9;98290;;;;
2023/03/12 05:08:12;;;;;;;28.7;16;;;;;;;-1.8;85.5;98290;;;;
2023/03/12 05:18:12;;;;;;;31.2;15.4;;;;;;;-1.9;85.5;98290;;;;
2023/03/12 05:29:12;;;;;;;31.2;15.4;;;;;;;-1.9;85.1;98290;;;;
2023/03/12 05:39:12;;;;;;;31.2;15.4;;;;;;;-1.8;84;98310;;;;
2023/03/12 05:49:12;;;;;;;27.2;14;;;;;;;-1.6;83.4;98320;;;;
2023/03/12 05:59:12;;;;;;;27.2;14;;;;;;;-1.4;81.5;98340;;;;
2023/03/12 06:09:12;;;;;;;27.2;14;;;;;;;-1.2;80.7;98360;;;;
2023/03/12 06:19:13;;;;;;;24.8;11.3;;;;;;;-0.7;79.4;98370;;;;
2023/03/12 06:29:12;;;;;;;24.8;11.3;;;;;;;-0.6;78.5;98370;;;;
2023/03/12 06:39:12;;;;;;;24.8;11.3;;;;;;;-0.1;79.1;98380;;;;
2023/03/12 06:50:12;;;;;;;26.7;11.8;;;;;;;0.3;74.5;98380;;;;
2023/03/12 07:00:12;;;;;;;26.7;11.8;;;;;;;0.7;76;98400;;;;
2023/03/12 07:11:12;;;;;;;26.7;11.8;;;;;;;0.9;73.7;98390;;;;
2023/03/12 07:22:12;;;;;;;19.7;11.3;;;;;;;1.2;72.9;98400;;;;
2023/03/12 07:32:12;;;;;;;19.7;11.3;;;;;;;1.2;73.7;98400;;;;
2023/03/12 07:43:12;;;;;;;19.7;11.3;;;;;;;1.6;72.1;98390;;;;
2023/03/12 07:53:12;;;;;;;11.6;7.3;;;;;;;1.8;70;98390;;;;
2023/03/12 08:03:12;;;;;;;11.6;7.3;;;;;;;2.4;70.2;98390;;;;
2023/03/12 08:13:12;;;;;;;11.6;7.3;;;;;;;2.4;69.4;98400;;;;
2023/03/12 08:23:12;;;;;;;10.8;5.9;;;;;;;2.3;68.9;98400;;;;
2023/03/12 08:34:12;;;;;;;10.8;5.9;;;;;;;2.4;68.9;98410;;;;
2023/03/12 08:45:12;;;;;;;7;4;;;;;;;2.6;65.8;98410;;;;
2023/03/12 08:55:12;;;;;;;7;4;;;;;;;2.4;66.3;98420;;;;
2023/03/12 09:06:15;;;;;;;7;4;;;;;;;2.9;66.7;98420;;;;
2023/03/12 09:16:12;;;;;;;5.4;2.9;;;;;;;3.1;66.2;98430;;;;
2023/03/12 09:27:12;;;;;;;5.4;2.9;;;;;;;3.2;62.2;98430;;;;
2023/03/12 09:38:12;;;;;;;5.4;2.9;;;;;;;3.2;61.8;98420;;;;
2023/03/12 09:48:12;;;;;;;4.4;2.1;;;;;;;3.3;63.5;98420;;;;
2023/03/12 09:59:12;;;;;;;4.4;2.1;;;;;;;3.7;61.8;98410;;;;
2023/03/12 10:10:12;;;;;;;4.4;2.1;;;;;;;3.7;61.9;98420;;;;
2023/03/12 10:21:12;;;;;;;3.9;2.6;;;;;;;3.9;62.1;98420;;;;
2023/03/12 10:31:12;;;;;;;3.9;2.6;;;;;;;4.2;60.5;98410;;;;
2023/03/12 10:42:12;;;;;;;3.9;2.6;;;;;;;4.2;58.9;98410;;;;
2023/03/12 10:52:12;;;;;;;4.5;2;;;;;;;4.3;59.7;98410;;;;
2023/03/12 11:03:12;;;;;;;4.5;2;;;;;;;4.4;59;98410;;;;
2023/03/12 11:14:12;;;;;;;5.7;3.3;;;;;;;4.9;59.6;98430;;;;
2023/03/12 11:25:14;;;;;;;5.7;3.3;;;;;;;4.9;58.2;98420;;;;
2023/03/12 11:35:12;;;;;;;5.7;3.3;;;;;;;4.8;57.9;98420;;;;
2023/03/12 11:45:13;;;;;;;6.6;3.5;;;;;;;4.7;57.1;98430;;;;
2023/03/12 11:55:12;;;;;;;6.6;3.5;;;;;;;4.8;58.3;98430;;;;
2023/03/12 12:05:12;;;;;;;6.6;3.5;;;;;;;5;56.9;98430;;;;
2023/03/12 12:15:13;;;;;;;7.1;3.8;;;;;;;5.1;57;98440;;;;
2023/03/12 12:25:12;;;;;;;7.1;3.8;;;;;;;5.2;55.5;98430;;;;
2023/03/12 12:35:12;;;;;;;7.1;3.8;;;;;;;5.8;56.9;98430;;;;
2023/03/12 12:45:12;;;;;;;7.6;3.6;;;;;;;5.5;56.4;98440;;;;
2023/03/12 12:56:12;;;;;;;7.6;3.6;;;;;;;5.6;55.1;98440;;;;
2023/03/12 13:06:12;;;;;;;7.6;3.6;;;;;;;5.7;55.7;98440;;;;
2023/03/12 13:17:16;;;;;;;7.7;4.3;;;;;;;5.8;54.8;98440;;;;
2023/03/12 13:27:12;;;;;;;7.7;4.3;;;;;;;6;53.7;98430;;;;
2023/03/12 13:37:12;;;;;;;7.7;4.3;;;;;;;6.2;52.4;98420;;;;
2023/03/12 13:48:12;;;;;;;8.7;5.2;;;;;;;6.1;50.9;98430;;;;
2023/03/12 13:59:12;;;;;;;8.7;5.2;;;;;;;6.2;51.4;98430;;;;
2023/03/12 14:09:12;;;;;;;8.7;5.2;;;;;;;6.2;51.5;98420;;;;
2023/03/12 14:20:12;;;;;;;7.1;4.5;;;;;;;6.2;50.6;98420;;;;
2023/03/12 14:30:12;;;;;;;7.1;4.5;;;;;;;6.6;51.3;98420;;;;
2023/03/12 14:41:13;;;;;;;7.1;4.5;;;;;;;6.4;49.4;98430;;;;
2023/03/12 14:52:12;;;;;;;93.2;81.6;;;;;;;6.4;50.3;98440;;;;
2023/03/12 15:02:12;;;;;;;93.2;81.6;;;;;;;6.4;51.2;98450;;;;
2023/03/12 15:13:12;;;;;;;10.9;8.1;;;;;;;6.2;51.7;98450;;;;
2023/03/12 15:23:12;;;;;;;10.9;8.1;;;;;;;6.1;51.4;98450;;;;
2023/03/12 15:33:12;;;;;;;10.9;8.1;;;;;;;6;51.2;98460;;;;
2023/03/12 15:44:12;;;;;;;7.9;4.3;;;;;;;5.8;52.3;98450;;;;
2023/03/12 15:55:12;;;;;;;7.9;4.3;;;;;;;5.6;52.2;98460;;;;
2023/03/12 16:05:12;;;;;;;7.9;4.3;;;;;;;5.4;52.9;98450;;;;
2023/03/12 16:16:12;;;;;;;7.8;3.9;;;;;;;5.2;53.7;98460;;;;
2023/03/12 16:27:12;;;;;;;7.8;3.9;;;;;;;5;55.3;98460;;;;
2023/03/12 16:38:12;;;;;;;7.8;3.9;;;;;;;4.6;55.7;98480;;;;
2023/03/12 16:48:12;;;;;;;9.2;4.6;;;;;;;4.3;56.1;98470;;;;
2023/03/12 16:58:12;;;;;;;9.2;4.6;;;;;;;4.1;56.3;98470;;;;
2023/03/12 17:09:12;;;;;;;9.2;4.6;;;;;;;3.9;57.5;98490;;;;
2023/03/12 17:20:12;;;;;;;7.9;4;;;;;;;3.7;58.9;98500;;;;
2023/03/12 17:30:12;;;;;;;7.9;4;;;;;;;3.5;59.6;98500;;;;
2023/03/12 17:41:12;;;;;;;7.9;4;;;;;;;3.4;61.4;98480;;;;
2023/03/12 17:52:12;;;;;;;8.7;4.1;;;;;;;3.5;63;98470;;;;
2023/03/12 18:02:12;;;;;;;8.7;4.1;;;;;;;3.4;63.4;98470;;;;
2023/03/12 18:12:13;;;;;;;8.7;4.1;;;;;;;3.3;63.1;98470;;;;
2023/03/12 18:22:13;;;;;;;7.8;4.4;;;;;;;3.3;62.9;98470;;;;
2023/03/12 18:32:12;;;;;;;7.8;4.4;;;;;;;3.1;63.7;98460;;;;
2023/03/12 18:42:12;;;;;;;7.8;4.4;;;;;;;2.9;62.2;98460;;;;
2023/03/12 18:52:12;;;;;;;10.6;5.5;;;;;;;2.7;63.6;98460;;;;
2023/03/12 19:02:12;;;;;;;10.6;5.5;;;;;;;2.7;62.4;98470;;;;
2023/03/12 19:12:12;;;;;;;10.6;5.5;;;;;;;2.7;62.3;98470;;;;
2023/03/12 19:22:12;;;;;;;10.8;5.5;;;;;;;2.5;64.5;98470;;;;
2023/03/12 19:32:12;;;;;;;10.8;5.5;;;;;;;2.2;66.3;98460;;;;
2023/03/12 19:43:12;;;;;;;22.6;10.9;;;;;;;2.2;65;98470;;;;
2023/03/12 19:53:12;;;;;;;22.6;10.9;;;;;;;2.3;65.2;98470;;;;
2023/03/12 20:04:12;;;;;;;22.6;10.9;;;;;;;2.3;65.3;98460;;;;
2023/03/12 20:14:12;;;;;;;15.6;9.3;;;;;;;2.4;65.6;98460;;;;
2023/03/12 20:24:12;;;;;;;15.6;9.3;;;;;;;2.5;64.2;98460;;;;
2023/03/12 20:35:12;;;;;;;15.6;9.3;;;;;;;2.7;61.9;98430;;;;
2023/03/12 20:45:13;;;;;;;11.7;5.7;;;;;;;2.9;59.9;98430;;;;
2023/03/12 20:56:12;;;;;;;11.7;5.7;;;;;;;2.9;60.2;98400;;;;
2023/03/12 21:06:12;;;;;;;11.7;5.7;;;;;;;3;59.9;98390;;;;
2023/03/12 21:17:13;;;;;;;11.3;5.1;;;;;;;3.1;59.9;98360;;;;
2023/03/12 21:28:12;;;;;;;11.3;5.1;;;;;;;3.2;59.6;98360;;;;
2023/03/12 21:38:12;;;;;;;11.3;5.1;;;;;;;3.2;59.1;98360;;;;
2023/03/12 21:48:12;;;;;;;13.1;5.9;;;;;;;3.2;60.4;98350;;;;
2023/03/12 21:59:12;;;;;;;13.1;5.9;;;;;;;3.2;60.3;98340;;;;
2023/03/12 22:09:12;;;;;;;13.1;5.9;;;;;;;3.3;60.8;98340;;;;
2023/03/12 22:19:12;;;;;;;13.2;6.5;;;;;;;3.3;61.2;98340;;;;
2023/03/12 22:29:12;;;;;;;13.2;6.5;;;;;;;3.4;61.6;98340;;;;
2023/03/12 22:39:12;;;;;;;13.2;6.5;;;;;;;3.5;60.7;98300;;;;
2023/03/12 22:50:12;;;;;;;13.6;6.2;;;;;;;3.8;59;98300;;;;
2023/03/12 23:00:13;;;;;;;13.6;6.2;;;;;;;3.9;59.6;98300;;;;
2023/03/12 23:11:13;;;;;;;13.6;6.2;;;;;;;4;60.4;98300;;;;
2023/03/12 23:22:12;;;;;;;9;4.4;;;;;;;4.2;61.4;98290;;;;
2023/03/12 23:32:13;;;;;;;9;4.4;;;;;;;4.3;62.2;98300;;;;
2023/03/12 23:43:12;;;;;;;8.2;4.5;;;;;;;4.6;63.1;98310;;;;
2023/03/12 23:54:12;;;;;;;8.2;4.5;;;;;;;4.8;62.7;98290;;;;
